Terminal Aerodrome Forecast
Issued by NWS

Home | Current Version | Previous Version | Text Only | Print | Product List | Glossary On
Versions: 1 2 3 4 5 6 7 8 9 10 11 12 13 14 15 16 17 18 19 20 21
000
FTUS43 KSGF 301100
TAFBBG
TAF
KBBG 301131Z 3012/3112 VRB05KT P6SM VCSH BKN004 OVC020
      TEMPO 3016/3019 OVC007
     FM301900 31008KT P6SM SCT007 OVC015
     FM310300 32003KT 6SM BR OVC003
     FM310600 00000KT 4SM BR OVC002=

USA.gov is the U.S. government's official web portal to all federal, state and local government web resources and services.